Steinkjer, Norge

07:22:CET den 24. november 2014 (GMT +0100)
Helgesmark/Byafossen | Change Station
CLOSE
Current Station
Personlig værstasjon
Location: Steinkjer, NORD-TRNDELAG
Høyde over havet: 328 ft
Nearby Weather Stations

H.o.h 328 ft 64.03 °N, 11.55 °E | Updated 21 seconds ago

Mostly Cloudy
For det meste skyet
38.1 °F
Feels Like 38 °F
N
2.9
Vind Variabel Vind from Nord
Gusts 2.9 mph

I dag
High -- | Low -- °F
--% Chance of Precip.
I går
High -- | Low -- °F
Precip. -- tommer
9:09 AM 2:51 PM
Økende sigd, 4% visible
Lufttrykk 29.71 tommer
Sikt 6.2 eng. mil
Skyet Few 3000 ft
For det meste skyet 4400 ft
Nedkjølingseffekt 38 °F
Duggpunkt 35 °F
Fuktighet 88%
Regn 0.00 tommer
Snødybde Not available.
UV 0.0 av 12
Pollen Not available.
Luftkvalitet Not available.
Flu Activity Not available.
METAR ENNM 240550Z 11007KT 060V160 9999 FEW030 BKN044 04/01 Q1006

More Conditions Fewer Conditions

Lufttrykk 29.71 tommer
Sikt 6.2 eng. mil
Skyet Few 3000 ft
For det meste skyet 4400 ft
Nedkjølingseffekt 38 °F
Duggpunkt 35 °F
Fuktighet 88%
Regn 0.00 tommer
Snødybde Not available.
UV 0.0 av 12
Pollen Not available.
Luftkvalitet Not available.
Flu Activity Not available.
METAR ENNM 240550Z 11007KT 060V160 9999 FEW030 BKN044 04/01 Q1006

More Conditions Fewer Conditions

10-Day Weather Forecast

Almanac

Astronomi

Nov. 24, 2014 Oppgang Nedgang
Virkelig tid
Tussmørke
Nautisk skumring
Astronomisk skumring
Månen
Lengde av synlig lys
Dagens lengde
Tomorrow will be .
, % of the Moon is Illuminated

Dagens maks og min

Country Highs Country Lows

Community

WunderPhotos

Upload Photos

1,773,284 photos uploaded!

WunderBlogs® & News

Nearby

Luftkvalitet

  Luftkvalitet AQ Indeks Forurensing
Not available.

Snødybde

Stasjon Depth Høyde over havet

Earthquake Activity

By Distance Mag. Time & Date
Minimum magnitude displayed is 2.5.

Coastal Water Temperatures

Sted Temperatur

Nearby Weather Stations